Time;durP1;ratioP1;P1;durP2;ratioP2;P2;SDS_P1;SDS_P2;PMS_P1;PMS_P2;Temp;Humidity;BMP_temperature;BMP_pressure;BME280_temperature;BME280_humidity;BME280_pressure;Samples;Min_cycle;Max_cycle;Signal;HPM_P1;HPM_P2
2023/02/20 00:01:24;;;;;;;5.37;1.27;;;;;;;2.96;72.14;99424.43;1707634;82;21575;-83
2023/02/20 00:03:51;;;;;;;6.60;1.55;;;;;;;2.98;72.25;99419.65;1711497;82;21049;-84
2023/02/20 00:06:17;;;;;;;13.72;1.85;;;;;;;2.99;72.35;99429.52;1709264;81;21108;-85
2023/02/20 00:08:44;;;;;;;3.75;1.45;;;;;;;2.97;72.29;99426.11;1712560;82;21093;-82
2023/02/20 00:11:10;;;;;;;7.67;1.60;;;;;;;2.95;72.35;99417.14;1709796;82;20981;-84
2023/02/20 00:13:47;;;;;;;5.42;1.62;;;;;;;2.98;72.47;99412.36;1714620;82;21144;-86
2023/02/20 00:16:14;;;;;;;8.95;1.45;;;;;;;2.98;72.64;99404.63;1677048;84;21560;-84
2023/02/20 00:18:41;;;;;;;5.00;1.12;;;;;;;2.98;72.58;99412.36;1650513;85;21121;-85
2023/02/20 00:21:08;;;;;;;6.10;0.98;;;;;;;2.97;72.66;99410.23;1675553;84;21102;-85
2023/02/20 00:23:34;;;;;;;2.77;1.12;;;;;;;2.97;72.82;99393.88;1636191;85;21031;-77
2023/02/20 00:26:01;;;;;;;6.37;1.52;;;;;;;2.96;72.99;99398.64;1707854;82;21042;-83
2023/02/20 00:28:28;;;;;;;8.75;2.62;;;;;;;2.97;73.13;99393.46;1712082;82;21540;-85
2023/02/20 00:30:56;;;;;;;7.50;1.52;;;;;;;2.95;73.31;99391.80;1716983;82;21093;-83
2023/02/20 00:33:22;;;;;;;7.15;1.62;;;;;;;2.96;73.33;99403.80;1707165;82;21113;-85
2023/02/20 00:35:49;;;;;;;2.62;0.90;;;;;;;2.94;73.30;99390.08;1677817;84;21551;-84
2023/02/20 00:38:15;;;;;;;4.45;0.98;;;;;;;2.94;73.48;99408.13;1649281;85;21027;-85
2023/02/20 00:40:42;;;;;;;9.65;1.20;;;;;;;2.94;73.43;99405.55;1654550;85;21066;-85
2023/02/20 00:43:08;;;;;;;5.67;1.40;;;;;;;2.94;73.73;99402.97;1633665;85;21028;-85
2023/02/20 00:45:35;;;;;;;5.53;1.67;;;;;;;2.91;73.79;99404.76;1661997;85;21003;-79
2023/02/20 00:48:02;;;;;;;7.33;1.55;;;;;;;2.91;73.81;99390.58;1634298;85;20947;-85
2023/02/20 00:50:28;;;;;;;7.57;1.40;;;;;;;2.89;73.90;99392.33;1630407;85;22338;-84
2023/02/20 00:52:55;;;;;;;5.35;1.40;;;;;;;2.89;74.17;99391.04;1633536;85;22556;-85
2023/02/20 00:55:21;;;;;;;5.72;1.07;;;;;;;2.87;73.95;99387.64;1630997;85;21522;-86
2023/02/20 00:57:49;;;;;;;7.20;1.47;;;;;;;2.89;74.12;99403.94;1617585;87;21114;-85
2023/02/20 01:00:20;;;;;;;5.67;1.30;;;;;;;2.90;74.18;99400.46;1614080;87;21050;-79
2023/02/20 01:02:47;;;;;;;8.65;2.08;;;;;;;2.93;74.14;99393.55;1643991;86;21053;-85
2023/02/20 01:05:14;;;;;;;5.95;1.40;;;;;;;2.93;74.20;99403.42;1627015;86;21058;-84
2023/02/20 01:07:41;;;;;;;6.72;1.47;;;;;;;2.93;74.24;99417.60;1618116;87;21043;-85
2023/02/20 01:10:10;;;;;;;8.53;1.67;;;;;;;2.92;74.39;99403.02;1626080;85;21010;-80
2023/02/20 01:12:36;;;;;;;5.67;1.10;;;;;;;2.91;74.33;99415.07;1647126;86;20986;-85
2023/02/20 01:15:06;;;;;;;9.78;1.30;;;;;;;2.90;74.49;99417.22;1648446;86;21656;-85
2023/02/20 01:17:34;;;;;;;5.95;1.17;;;;;;;2.91;74.55;99401.30;1647996;86;21028;-84
2023/02/20 01:20:00;;;;;;;;;;;;;;;2.89;74.48;99393.62;1648416;85;21020;-83
2023/02/20 01:22:27;;;;;;;6.93;1.37;;;;;;;2.87;74.79;99384.22;1649710;86;20186;-84
2023/02/20 01:24:54;;;;;;;6.00;1.60;;;;;;;2.85;74.70;99377.78;1630609;86;21071;-84
2023/02/20 01:27:22;;;;;;;7.40;1.40;;;;;;;2.85;74.79;99380.81;1628105;86;21038;-85
2023/02/20 01:29:48;;;;;;;5.97;1.75;;;;;;;2.83;75.03;99374.41;1646439;86;21054;-83
2023/02/20 01:32:15;;;;;;;5.20;1.55;;;;;;;2.85;74.93;99381.66;1633234;86;21026;-82
2023/02/20 01:34:42;;;;;;;4.35;1.22;;;;;;;2.86;75.01;99383.37;1649306;86;21025;-85
2023/02/20 01:37:15;;;;;;;4.60;1.57;;;;;;;2.83;75.02;99378.28;1634367;86;21034;-84
2023/02/20 01:39:41;;;;;;;5.12;1.37;;;;;;;2.82;75.05;99370.56;1617037;86;21579;-85
2023/02/20 01:42:13;;;;;;;4.83;1.30;;;;;;;2.81;75.37;99385.20;1613822;87;21543;-85
2023/02/20 01:44:41;;;;;;;9.03;1.35;;;;;;;2.77;75.37;99361.63;1601083;87;21037;-85
2023/02/20 01:47:11;;;;;;;8.45;1.70;;;;;;;2.76;75.31;99360.39;1629663;86;21013;-85
2023/02/20 01:49:46;;;;;;;5.08;1.70;;;;;;;2.73;76.01;99363.88;1685303;83;22198;-84
2023/02/20 01:52:29;;;;;;;6.45;1.27;;;;;;;2.69;75.56;99339.05;1674794;84;21010;-82
2023/02/20 01:55:04;;;;;;;10.75;1.82;;;;;;;2.68;75.87;99337.34;1608040;87;21038;-86
2023/02/20 01:57:37;;;;;;;4.60;1.55;;;;;;;2.67;75.74;99340.36;1655816;84;21040;-85
2023/02/20 02:00:12;;;;;;;6.42;1.57;;;;;;;2.65;76.01;99333.09;1651111;86;21130;-85
2023/02/20 02:02:47;;;;;;;7.00;1.47;;;;;;;2.65;75.78;99324.52;1649892;84;21126;-84
2023/02/20 02:05:16;;;;;;;6.37;1.47;;;;;;;2.63;75.90;99337.46;1632507;85;21082;-84
2023/02/20 02:07:44;;;;;;;9.03;1.60;;;;;;;2.62;76.07;99324.59;1649168;85;21063;-77
2023/02/20 02:10:18;;;;;;;6.67;1.30;;;;;;;2.62;76.34;99319.44;1646153;85;21059;-85
2023/02/20 02:12:51;;;;;;;7.30;1.45;;;;;;;2.62;76.18;99314.28;1649105;85;21142;-85
2023/02/20 02:15:22;;;;;;;7.12;1.37;;;;;;;2.65;76.26;99319.37;1654681;85;21168;-86
2023/02/20 02:18:24;;;;;;;9.18;1.67;;;;;;;2.62;76.27;99302.68;1652118;85;21062;-85
2023/02/20 02:21:26;;;;;;;7.10;1.05;;;;;;;2.62;76.45;99322.02;1657453;85;21059;-86
2023/02/20 02:24:25;;;;;;;4.10;1.15;;;;;;;2.59;76.61;99315.64;1644491;85;21111;-84
2023/02/20 02:27:35;;;;;;;5.75;1.27;;;;;;;2.60;76.85;99306.56;1651445;85;21049;-84
2023/02/20 02:30:23;;;;;;;6.85;1.50;;;;;;;2.60;76.72;99304.44;1650527;85;21065;-85
2023/02/20 02:33:19;;;;;;;11.43;1.70;;;;;;;2.61;76.86;99302.28;1644324;85;21079;-86
2023/02/20 02:36:16;;;;;;;5.70;1.40;;;;;;;2.61;77.01;99302.28;1646010;85;21489;-83
2023/02/20 02:39:02;;;;;;;5.87;0.98;;;;;;;2.56;77.11;99288.64;1645781;85;21056;-85
2023/02/20 02:41:43;;;;;;;6.53;0.90;;;;;;;2.57;77.05;99284.72;1646780;85;21102;-85
2023/02/20 02:44:24;;;;;;;8.38;1.67;;;;;;;2.56;77.31;99289.94;1647374;85;21152;-84
2023/02/20 02:47:20;;;;;;;8.60;1.50;;;;;;;2.54;77.42;99299.41;1648272;85;21059;-84
2023/02/20 02:50:12;;;;;;;6.12;1.07;;;;;;;2.52;77.33;99305.91;1668092;84;21572;-85
2023/02/20 02:52:49;;;;;;;7.53;0.93;;;;;;;2.52;77.47;99295.60;1644601;85;21006;-84
2023/02/20 02:55:28;;;;;;;3.87;1.30;;;;;;;2.52;77.47;99284.42;1629431;85;21085;-83
2023/02/20 02:57:55;;;;;;;6.95;1.40;;;;;;;2.51;77.62;99277.58;1608088;87;21092;-85
2023/02/20 03:00:29;;;;;;;9.00;1.82;;;;;;;2.48;77.99;99277.65;1612183;87;21051;-84
2023/02/20 03:03:10;;;;;;;8.00;1.00;;;;;;;2.45;77.84;99271.67;1645877;85;21067;-86
2023/02/20 03:06:15;;;;;;;9.18;1.98;;;;;;;2.43;77.94;99281.16;1650559;85;21099;-85
2023/02/20 03:08:48;;;;;;;9.93;1.57;;;;;;;2.41;77.89;99279.52;1589675;88;21090;-81
2023/02/20 03:11:19;;;;;;;9.68;1.30;;;;;;;2.36;78.15;99257.70;1637650;85;21021;-85
2023/02/20 03:17:11;;;;;;;5.67;1.42;;;;;;;2.31;78.61;99258.23;1631659;85;21005;-85
2023/02/20 03:19:49;;;;;;;8.20;1.50;;;;;;;2.30;78.45;99248.82;1640825;85;21034;-85
2023/02/20 03:22:23;;;;;;;3.87;1.40;;;;;;;2.29;78.55;99256.13;1628062;85;21000;-84
2023/02/20 03:24:55;;;;;;;5.70;1.35;;;;;;;2.29;78.79;99236.80;1632768;85;21583;-84
2023/02/20 03:27:37;;;;;;;5.10;0.88;;;;;;;2.24;78.96;99243.77;1649512;85;21097;-86
2023/02/20 03:30:13;;;;;;;5.95;1.15;;;;;;;2.21;79.34;99228.39;1640126;85;21170;-85
2023/02/20 03:43:50;;;;;;;;;;;;;;;2.13;79.70;99235.42;1695778;83;21075;-77
2023/02/20 03:46:26;;;;;;;6.78;1.27;;;;;;;2.12;79.92;99247.91;1697206;82;20158;-85
2023/02/20 03:49:05;;;;;;;5.25;1.32;;;;;;;2.08;80.13;99239.84;1706403;82;21509;-85
2023/02/20 03:51:33;;;;;;;4.80;1.42;;;;;;;2.05;80.21;99236.05;1701636;82;21501;-84
2023/02/20 03:54:00;;;;;;;7.20;1.80;;;;;;;2.03;80.77;99255.38;1696004;82;21014;-83
2023/02/20 03:56:40;;;;;;;6.80;2.20;;;;;;;1.99;80.71;99226.28;1708597;82;21093;-84
2023/02/20 03:59:34;;;;;;;8.65;1.45;;;;;;;1.96;80.56;99234.07;1676634;84;21059;-86
2023/02/20 04:02:09;;;;;;;10.15;1.70;;;;;;;1.92;80.77;99206.67;1633365;87;21058;-85
2023/02/20 04:04:46;;;;;;;7.60;1.90;;;;;;;1.91;80.91;99199.84;1655078;85;21084;-84
2023/02/20 04:07:15;;;;;;;;;;;;;;;1.87;80.97;99196.90;1680035;84;21006;-85
2023/02/20 04:09:45;;;;;;;6.47;1.72;;;;;;;1.83;81.14;99183.70;1641313;85;20104;-85
2023/02/20 04:12:25;;;;;;;8.58;1.62;;;;;;;1.79;81.60;99189.77;1649649;85;21081;-77
2023/02/20 04:14:55;;;;;;;9.58;2.00;;;;;;;1.74;81.73;99196.77;1672595;84;21026;-85
2023/02/20 04:17:31;;;;;;;9.58;2.20;;;;;;;1.70;81.62;99184.37;1668348;85;21542;-85
2023/02/20 04:19:58;;;;;;;7.40;1.77;;;;;;;1.71;81.96;99197.66;1710380;82;21077;-84
2023/02/20 04:22:29;;;;;;;5.62;1.50;;;;;;;1.70;82.00;99177.09;1706406;81;21160;-86
2023/02/20 04:25:01;;;;;;;6.97;1.70;;;;;;;1.68;82.45;99162.11;1711470;82;21065;-85
2023/02/20 04:27:28;;;;;;;10.48;1.98;;;;;;;1.66;82.43;99154.89;1705866;82;21088;-85
2023/02/20 04:29:55;;;;;;;6.12;1.80;;;;;;;1.66;82.34;99165.18;1712639;82;21628;-85
2023/02/20 04:32:21;;;;;;;4.20;1.57;;;;;;;1.66;82.53;99164.73;1712691;82;21041;-77
2023/02/20 04:34:48;;;;;;;3.55;1.72;;;;;;;1.65;82.49;99148.02;1677274;84;21452;-85
2023/02/20 04:37:20;;;;;;;8.38;1.67;;;;;;;1.61;82.69;99137.40;1674329;84;21066;-84
2023/02/20 04:39:47;;;;;;;3.17;1.15;;;;;;;1.60;82.76;99128.84;1650497;85;21138;-85
2023/02/20 04:42:13;;;;;;;4.78;1.55;;;;;;;1.60;83.00;99129.25;1631836;85;21002;-84
2023/02/20 04:44:42;;;;;;;3.43;1.20;;;;;;;1.51;82.86;99128.59;1659032;84;21108;-85
2023/02/20 04:47:13;;;;;;;7.67;1.52;;;;;;;1.48;83.00;99138.91;1656174;84;21792;-84
2023/02/20 04:49:39;;;;;;;6.60;1.47;;;;;;;1.44;83.15;99119.28;1659676;84;21151;-78
2023/02/20 04:52:06;;;;;;;4.47;1.53;;;;;;;1.43;83.55;99097.02;1653190;84;21046;-86
2023/02/20 04:54:33;;;;;;;4.22;1.77;;;;;;;1.46;83.53;99099.52;1668327;84;21049;-82
2023/02/20 04:56:59;;;;;;;6.22;1.45;;;;;;;1.45;83.95;99100.38;1654905;84;21042;-85
2023/02/20 04:59:26;;;;;;;5.35;2.00;;;;;;;1.41;83.80;99085.91;1662227;84;21533;-76
2023/02/20 05:01:53;;;;;;;6.67;1.60;;;;;;;1.43;83.94;99085.44;1663542;84;21045;-82
2023/02/20 05:04:21;;;;;;;3.62;1.72;;;;;;;1.42;83.98;99082.44;1663671;84;21062;-85
2023/02/20 05:06:52;;;;;;;5.40;1.25;;;;;;;1.41;84.05;99080.76;1658380;84;21101;-79
2023/02/20 05:09:24;;;;;;;6.25;1.32;;;;;;;1.41;83.82;99069.63;1659862;84;21548;-85
2023/02/20 05:12:01;;;;;;;;;;;;;;;;;;;;;
2023/02/20 05:14:35;;;;;;;;;;;;;;;;;;;;;
2023/02/20 05:16:55;;;;;;;3.25;1.00;;;;;;;1.32;84.56;99052.66;1629805;86;21049;-82
2023/02/20 05:22:51;;;;;;;2.98;1.30;;;;;;;1.27;84.51;99059.62;1441521;96;21121;-85
2023/02/20 05:25:18;;;;;;;4.40;1.20;;;;;;;1.19;84.69;99046.06;1436974;98;21116;-85
2023/02/20 05:27:44;;;;;;;3.05;1.10;;;;;;;1.15;84.91;99027.70;1442454;97;21142;-82
2023/02/20 05:30:12;;;;;;;3.80;1.37;;;;;;;1.11;84.86;99020.05;1485898;95;21030;-85
2023/02/20 05:32:38;;;;;;;2.25;1.37;;;;;;;1.12;85.06;99027.32;1490737;95;21070;-85
2023/02/20 05:35:05;;;;;;;5.55;1.45;;;;;;;1.09;84.84;99030.83;1488496;95;21101;-84
2023/02/20 05:37:32;;;;;;;2.47;1.07;;;;;;;1.06;85.11;99021.86;1459689;97;21657;-85
2023/02/20 05:39:58;;;;;;;2.73;1.00;;;;;;;1.04;85.24;99022.80;1490081;94;21268;-85
2023/02/20 05:42:28;;;;;;;5.10;1.50;;;;;;;1.03;85.22;99012.09;1484843;94;21885;-84
2023/02/20 05:44:54;;;;;;;2.80;1.20;;;;;;;0.98;85.33;99000.63;1484949;95;21108;-84
2023/02/20 05:47:21;;;;;;;2.00;1.10;;;;;;;0.93;85.52;98997.74;1485668;95;21112;-85
2023/02/20 05:49:47;;;;;;;1.92;0.98;;;;;;;0.92;85.62;98991.73;1484100;94;21053;-85
2023/02/20 05:52:14;;;;;;;4.17;1.12;;;;;;;0.88;86.03;98984.97;1482847;95;21128;-85
2023/02/20 05:54:41;;;;;;;1.80;1.15;;;;;;;0.86;86.14;98999.56;1456891;97;21100;-84
2023/02/20 05:57:11;;;;;;;2.45;1.22;;;;;;;0.85;86.54;98973.47;1480281;95;21121;-85
2023/02/20 05:59:40;;;;;;;2.50;1.07;;;;;;;0.82;86.13;98947.84;1476230;96;21108;-85
2023/02/20 06:02:06;;;;;;;1.80;1.15;;;;;;;0.78;86.50;98942.33;1446824;97;21627;-84
2023/02/20 06:04:33;;;;;;;2.40;1.00;;;;;;;0.74;86.33;98935.58;1443736;97;21142;-85
2023/02/20 06:07:01;;;;;;;2.87;1.37;;;;;;;0.71;86.63;98922.80;1426954;97;21130;-84
2023/02/20 06:09:28;;;;;;;2.67;1.40;;;;;;;0.69;86.93;98918.11;1436961;99;21161;-85
2023/02/20 06:12:00;;;;;;;5.58;2.12;;;;;;;0.69;86.91;98924.54;1486368;94;21413;-83
2023/02/20 06:14:27;;;;;;;8.40;4.28;;;;;;;0.67;86.85;98919.42;1488994;95;21645;-85
2023/02/20 06:16:56;;;;;;;9.27;7.17;;;;;;;0.69;86.77;98910.41;1528691;89;21570;-85
2023/02/20 06:19:24;;;;;;;8.33;4.50;;;;;;;0.69;86.97;98908.67;1616221;86;21247;-81
2023/02/20 06:21:54;;;;;;;6.28;3.15;;;;;;;0.71;86.89;98898.38;1602386;86;21155;-85
2023/02/20 06:24:25;;;;;;;6.55;4.67;;;;;;;0.70;87.22;98901.81;1620259;86;21460;-81
2023/02/20 06:26:54;;;;;;;4.90;3.08;;;;;;;0.65;87.10;98888.63;1638675;84;21083;-84
2023/02/20 06:29:21;;;;;;;2.50;2.05;;;;;;;0.66;87.10;98884.34;1643474;86;21069;-81
2023/02/20 06:31:48;;;;;;;4.42;3.27;;;;;;;0.63;87.81;98862.12;1684517;84;21086;-87
2023/02/20 06:34:16;;;;;;;7.83;5.00;;;;;;;0.62;88.46;98872.45;1646179;85;21029;-84
2023/02/20 06:36:44;;;;;;;2.92;2.27;;;;;;;0.58;88.47;98852.38;1674274;84;21065;-77
2023/02/20 06:39:20;;;;;;;3.85;1.80;;;;;;;0.61;88.28;98854.03;1678856;84;21006;-83
2023/02/20 06:41:46;;;;;;;3.47;2.17;;;;;;;0.58;88.18;98851.09;1672959;84;21577;-85
2023/02/20 06:44:13;;;;;;;6.55;1.98;;;;;;;0.58;88.60;98851.09;1643276;85;21088;-85
2023/02/20 06:46:40;;;;;;;1.77;1.37;;;;;;;0.57;88.41;98839.58;1633063;85;21094;-77
2023/02/20 06:49:06;;;;;;;2.00;1.80;;;;;;;0.55;88.48;98834.45;1651267;85;21085;-82
2023/02/20 06:51:42;;;;;;;2.77;1.65;;;;;;;0.52;88.77;98833.24;1636887;87;21034;-77
2023/02/20 06:54:15;;;;;;;4.10;1.95;;;;;;;0.52;88.96;98815.70;1677366;82;21054;-84
2023/02/20 06:56:44;;;;;;;3.67;1.52;;;;;;;0.53;88.69;98818.22;1705726;82;21150;-86
2023/02/20 06:59:14;;;;;;;1.77;1.60;;;;;;;0.51;88.67;98799.45;1652361;85;21106;-89
2023/02/20 07:01:43;;;;;;;1.37;1.00;;;;;;;0.50;88.78;98805.89;1631395;85;21002;-85
2023/02/20 07:04:29;;;;;;;1.35;1.25;;;;;;;0.48;89.01;98802.09;1657962;84;21581;-87
2023/02/20 07:06:53;;;;;;;2.98;1.85;;;;;;;0.47;88.83;98788.82;1621299;87;21039;-88
2023/02/20 07:09:24;;;;;;;6.70;1.60;;;;;;;0.50;88.79;98786.19;1640538;85;21608;-87
2023/02/20 07:11:54;;;;;;;3.12;1.40;;;;;;;0.50;89.08;98775.91;1622680;85;21013;-92
2023/02/20 07:14:23;;;;;;;2.70;1.30;;;;;;;0.48;89.09;98755.86;1639282;85;21639;-92
2023/02/20 07:16:53;;;;;;;2.42;1.75;;;;;;;0.47;89.67;98751.58;1645364;85;21081;-89
2023/02/20 07:19:39;;;;;;;2.47;1.55;;;;;;;0.47;89.41;98737.45;1599810;85;21568;-87
2023/02/20 07:22:10;;;;;;;2.58;1.62;;;;;;;0.48;89.41;98734.03;1638898;85;21513;-77
2023/02/20 07:27:13;;;;;;;3.10;1.60;;;;;;;0.46;89.53;98712.66;1567500;89;21225;-80
2023/02/20 07:29:50;;;;;;;1.60;1.45;;;;;;;0.46;89.87;98704.95;1568354;90;21107;-82
2023/02/20 07:32:33;;;;;;;2.02;1.60;;;;;;;0.47;90.08;98677.09;1587071;88;21347;-81
2023/02/20 07:35:13;;;;;;;2.45;1.47;;;;;;;0.45;90.23;98672.46;1575208;90;21104;-83
2023/02/20 07:40:19;;;;;;;2.33;1.60;;;;;;;0.50;90.11;98677.47;1567928;91;21130;-83
2023/02/20 07:42:49;;;;;;;1.82;1.30;;;;;;;0.48;90.10;98686.52;1549971;91;21113;-87
2023/02/20 07:45:33;;;;;;;;;;;;;;;;;;;;;
2023/02/20 07:48:02;;;;;;;2.33;1.98;;;;;;;0.48;90.51;98685.23;1454052;97;21157;-80
2023/02/20 07:50:35;;;;;;;1.45;1.35;;;;;;;0.49;90.62;98670.21;1471673;97;21653;-82
2023/02/20 07:53:24;;;;;;;;;;;;;;;;;;;;;
2023/02/20 07:55:51;;;;;;;;;;;;;;;;;;;;;
2023/02/20 07:58:27;;;;;;;;;;;;;;;;;;;;;
2023/02/20 08:00:58;;;;;;;2.22;1.52;;;;;;;0.54;91.10;98597.75;1405567;101;21407;-85
2023/02/20 08:03:31;;;;;;;1.35;1.00;;;;;;;0.55;91.06;98587.03;1406805;102;21256;-84
2023/02/20 08:06:04;;;;;;;1.30;1.20;;;;;;;0.55;91.23;98593.00;1343819;103;21799;-81
2023/02/20 08:08:34;;;;;;;1.75;1.20;;;;;;;0.58;91.40;98594.66;1365523;105;21172;-80
2023/02/20 08:11:16;;;;;;;;;;;;;;;;;;;;;
2023/02/20 08:13:54;;;;;;;3.98;1.32;;;;;;;0.56;91.68;98581.87;1363161;105;21201;-81
2023/02/20 08:16:19;;;;;;;5.80;2.85;;;;;;;0.56;91.68;98542.05;1281525;111;21310;-81
2023/02/20 08:19:02;;;;;;;;;;;;;;;;;;;;;
2023/02/20 08:52:48;;;;;;;1.70;1.27;;;;;;;1.44;94.05;98386.16;1237614;115;21264;-78
2023/02/20 09:05:02;;;;;;;;;;;;;;;;;;;;;
2023/02/20 09:44:42;;;;;;;6.35;3.58;;;;;;;2.15;97.63;98312.55;1250314;110;21265;-78
2023/02/20 10:09:33;;;;;;;10.90;5.45;;;;;;;2.82;99.07;98261.98;1360445;104;21708;-80
2023/02/20 10:16:00;;;;;;;5.37;4.20;;;;;;;3.06;99.82;98206.04;1331555;104;21297;-82
2023/02/20 10:22:48;;;;;;;6.40;5.10;;;;;;;3.21;99.89;98213.58;1438245;95;21146;-82
2023/02/20 10:36:13;;;;;;;10.90;5.70;;;;;;;3.59;100.00;98115.19;1417400;101;21373;-78
2023/02/20 10:43:06;;;;;;;8.88;6.17;;;;;;;3.83;100.00;98115.81;1433490;95;21119;-78
2023/02/20 11:26:50;;;;;;;;;;;;;;;;;;;;;
2023/02/20 11:33:23;;;;;;;10.98;6.15;;;;;;;4.69;100.00;98071.23;1302358;108;21726;-81
2023/02/20 11:36:07;;;;;;;13.30;7.03;;;;;;;4.75;100.00;98048.57;1302914;110;21153;-78
2023/02/20 11:38:47;;;;;;;10.03;6.90;;;;;;;4.76;100.00;98089.02;1301722;110;21175;-77
2023/02/20 11:53:06;;;;;;;10.65;6.97;;;;;;;4.73;100.00;98068.48;1312585;108;21202;-79
2023/02/20 11:55:45;;;;;;;14.90;6.65;;;;;;;4.67;100.00;98005.83;1320876;107;21993;-80
2023/02/20 11:58:27;;;;;;;13.88;6.80;;;;;;;4.68;100.00;97976.50;1361676;105;21167;-79
2023/02/20 12:05:13;;;;;;;24.85;7.12;;;;;;;4.76;100.00;97988.17;1352373;103;21437;-81
2023/02/20 12:07:59;;;;;;;14.05;6.42;;;;;;;4.78;100.00;97965.67;1396739;102;21103;-82
2023/02/20 12:10:50;;;;;;;15.70;7.15;;;;;;;4.87;100.00;97976.39;1392649;102;22140;-88
2023/02/20 12:13:28;;;;;;;10.63;6.42;;;;;;;4.88;100.00;98008.25;1382109;104;21658;-80
2023/02/20 12:16:11;;;;;;;11.55;5.87;;;;;;;4.93;100.00;97977.82;1382689;104;21117;-83
2023/02/20 12:32:04;;;;;;;7.87;4.70;;;;;;;5.20;100.00;97904.83;1847039;76;27960;-84
2023/02/20 12:35:15;;;;;;;7.30;4.03;;;;;;;5.13;100.00;97919.86;1754374;80;21065;-87
2023/02/20 12:38:19;;;;;;;6.90;4.30;;;;;;;5.08;100.00;97899.39;1753441;80;21432;-88
2023/02/20 12:41:15;;;;;;;6.90;3.90;;;;;;;5.09;100.00;97907.98;1768342;78;21094;-78
2023/02/20 12:44:03;;;;;;;;;;;;;;;;;;;;;
2023/02/20 12:46:30;;;;;;;5.50;3.72;;;;;;;5.14;100.00;97883.53;1770071;78;21466;-78
2023/02/20 13:04:30;;;;;;;8.33;4.70;;;;;;;5.58;100.00;97893.19;1811623;77;28107;-77
2023/02/20 13:07:17;;;;;;;8.23;5.05;;;;;;;5.48;100.00;97897.20;1776580;78;21111;-78
2023/02/20 13:10:10;;;;;;;8.18;4.10;;;;;;;5.45;100.00;97892.20;1779647;79;21064;-80
2023/02/20 13:12:36;;;;;;;9.03;3.90;;;;;;;5.41;100.00;97894.59;1775457;79;21041;-78
2023/02/20 13:15:28;;;;;;;8.50;4.10;;;;;;;5.39;100.00;97858.90;1782997;79;21878;-78
2023/02/20 13:18:20;;;;;;;6.65;3.85;;;;;;;5.41;100.00;97862.25;1777958;79;21100;-78
2023/02/20 13:20:53;;;;;;;7.25;4.37;;;;;;;5.41;100.00;97857.07;1779107;78;21918;-79
2023/02/20 13:35:33;;;;;;;5.83;4.20;;;;;;;5.76;100.00;97886.59;1875859;74;22038;-81
2023/02/20 13:38:11;;;;;;;6.03;3.75;;;;;;;5.69;100.00;97877.52;1845775;75;21001;-78
2023/02/20 13:40:44;;;;;;;6.30;3.67;;;;;;;5.66;100.00;97882.84;1846801;75;21068;-81
2023/02/20 13:43:32;;;;;;;4.45;2.45;;;;;;;5.65;100.00;97885.08;1849684;75;21030;-78
2023/02/20 13:46:11;;;;;;;6.45;2.95;;;;;;;5.64;100.00;97860.11;1852087;75;21520;-83
2023/02/20 13:48:46;;;;;;;4.37;2.87;;;;;;;5.63;100.00;97867.48;1845528;76;21069;-80
2023/02/20 13:51:24;;;;;;;4.58;3.00;;;;;;;5.64;100.00;97869.17;1844293;75;21583;-80
2023/02/20 13:54:11;;;;;;;6.87;2.98;;;;;;;5.64;100.00;97928.26;1839971;75;21063;-82
2023/02/20 13:57:04;;;;;;;;;;;;;;;;;;;;;
2023/02/20 14:12:38;;;;;;;3.52;1.90;;;;;;;6.21;100.00;97818.80;1826675;77;27962;-84
2023/02/20 14:15:12;;;;;;;2.70;1.62;;;;;;;6.11;100.00;97866.94;1833164;76;21528;-80
2023/02/20 14:17:42;;;;;;;2.98;1.72;;;;;;;6.10;100.00;97835.45;1810627;77;21033;-88
2023/02/20 14:20:21;;;;;;;4.10;1.67;;;;;;;6.11;100.00;97830.66;1823323;76;21081;-83
2023/02/20 14:22:49;;;;;;;2.85;2.02;;;;;;;6.11;100.00;97844.44;1810709;77;21041;-82
2023/02/20 14:25:29;;;;;;;3.47;1.70;;;;;;;6.11;100.00;97881.19;1837655;76;21552;-89
2023/02/20 14:28:12;;;;;;;2.87;1.77;;;;;;;6.14;100.00;97843.43;1836186;76;21082;-82
2023/02/20 14:30:40;;;;;;;2.85;1.65;;;;;;;6.16;100.00;97834.64;1839311;75;21548;-80
2023/02/20 14:33:25;;;;;;;5.25;1.40;;;;;;;6.22;100.00;97817.89;1837434;75;21038;-86
2023/02/20 14:36:11;;;;;;;2.72;1.55;;;;;;;6.22;100.00;97846.41;1799775;77;21028;-89
2023/02/20 14:39:01;;;;;;;2.08;1.50;;;;;;;6.24;100.00;97841.94;1815481;76;21111;-80
2023/02/20 14:44:24;;;;;;;3.75;1.87;;;;;;;6.30;100.00;97815.65;1705785;81;21617;-81
2023/02/20 14:47:34;;;;;;;;;;;;;;;;;;;;;
2023/02/20 14:50:22;;;;;;;5.53;1.92;;;;;;;6.40;100.00;97808.16;1706623;82;21058;-79
2023/02/20 14:53:32;;;;;;;6.78;1.82;;;;;;;6.41;100.00;97817.16;1688603;83;21639;-84
2023/02/20 14:56:16;;;;;;;2.42;1.70;;;;;;;6.45;100.00;97794.00;1646166;84;21043;-82
2023/02/20 14:58:46;;;;;;;4.53;2.15;;;;;;;6.47;100.00;97772.70;1666467;83;21368;-81
2023/02/20 15:01:49;;;;;;;;;;;;;;;;;;;;;
2023/02/20 15:04:43;;;;;;;;;;;;;;;;;;;;;
2023/02/20 15:07:17;;;;;;;5.65;2.50;;;;;;;6.53;100.00;97825.11;1520859;91;21205;-83
2023/02/20 15:09:46;;;;;;;6.45;2.67;;;;;;;6.50;100.00;97881.41;1545635;90;21114;-83
2023/02/20 15:12:38;;;;;;;4.47;2.37;;;;;;;6.53;100.00;97799.19;1526996;90;21198;-90
2023/02/20 15:15:18;;;;;;;5.53;2.42;;;;;;;6.55;100.00;97821.94;1451946;96;21157;-85
2023/02/20 15:17:46;;;;;;;7.05;2.30;;;;;;;6.57;100.00;97805.84;1453110;95;21679;-86
2023/02/20 15:20:44;;;;;;;;;;;;;;;;;;;;;
2023/02/20 15:41:36;;;;;;;6.20;1.85;;;;;;;6.41;100.00;97805.93;1810901;77;28207;-82
2023/02/20 15:44:05;;;;;;;5.83;2.37;;;;;;;6.31;100.00;97827.70;1728414;81;21060;-81
2023/02/20 15:46:37;;;;;;;4.60;2.15;;;;;;;6.23;100.00;97825.56;1758713;79;21052;-83
2023/02/20 15:49:11;;;;;;;5.42;2.35;;;;;;;6.19;100.00;97851.73;1765658;79;21092;-81
2023/02/20 15:51:41;;;;;;;6.50;2.55;;;;;;;6.21;100.00;97809.73;1766422;79;21629;-79
2023/02/20 15:54:16;;;;;;;8.13;2.72;;;;;;;6.21;100.00;97826.58;1763165;79;21075;-87
2023/02/20 15:56:46;;;;;;;7.03;2.72;;;;;;;6.25;100.00;97806.05;1766820;80;21602;-86
2023/02/20 15:59:13;;;;;;;8.03;2.40;;;;;;;6.27;100.00;97821.02;1764585;79;21033;-84
2023/02/20 16:01:42;;;;;;;5.85;2.27;;;;;;;6.28;100.00;97823.53;1764309;79;21631;-86
2023/02/20 16:04:38;;;;;;;;;;;;;;;;;;;;;
2023/02/20 16:06:44;;;;;;;8.13;2.47;;;;;;;6.31;100.00;97819.92;1756714;79;21077;-85
2023/02/20 16:12:20;;;;;;;6.37;2.40;;;;;;;6.34;100.00;97835.29;1535854;91;21263;-86
2023/02/20 16:27:01;;;;;;;7.92;2.90;;;;;;;6.43;100.00;97823.06;1818037;77;28180;-85
2023/02/20 16:29:37;;;;;;;8.35;2.30;;;;;;;6.36;100.00;97823.08;1796671;78;21056;-82
2023/02/20 16:32:20;;;;;;;9.00;2.37;;;;;;;6.34;100.00;97823.63;1763765;79;21128;-82
2023/02/20 16:35:05;;;;;;;7.62;2.52;;;;;;;6.33;100.00;97836.23;1764417;79;22433;-83
2023/02/20 16:37:28;;;;;;;12.30;2.80;;;;;;;6.36;100.00;97846.41;1758529;79;21951;-82
2023/02/20 16:39:57;;;;;;;10.63;1.95;;;;;;;6.38;100.00;97838.05;1763646;79;21072;-82
2023/02/20 16:42:32;;;;;;;13.38;2.83;;;;;;;6.38;100.00;97844.53;1767817;79;21222;-84
2023/02/20 16:45:11;;;;;;;9.80;3.08;;;;;;;6.39;100.00;97850.58;1764039;79;21061;-83
2023/02/20 16:47:37;;;;;;;14.23;2.77;;;;;;;6.40;100.00;97855.66;1761746;79;21099;-81
2023/02/20 16:50:12;;;;;;;10.40;2.87;;;;;;;6.41;100.00;97850.86;1767937;79;21098;-82
2023/02/20 16:52:40;;;;;;;15.80;2.87;;;;;;;6.41;100.00;97849.56;1765011;79;21018;-83
2023/02/20 16:55:21;;;;;;;12.70;2.98;;;;;;;6.41;100.00;97863.83;1733111;79;20994;-84
2023/02/20 16:57:58;;;;;;;11.63;3.22;;;;;;;6.42;100.00;97861.59;1763613;79;21476;-83
2023/02/20 17:00:30;;;;;;;15.63;3.37;;;;;;;6.42;100.00;97890.11;1759674;79;21100;-82
2023/02/20 17:02:57;;;;;;;14.93;3.25;;;;;;;6.39;100.00;97886.41;1766380;79;21036;-84
2023/02/20 17:18:31;;;;;;;16.30;3.27;;;;;;;6.34;100.00;97915.64;1816250;77;28648;-81
2023/02/20 17:20:59;;;;;;;12.78;3.35;;;;;;;6.29;100.00;97896.93;1792901;78;21121;-81
2023/02/20 17:23:36;;;;;;;20.97;4.58;;;;;;;6.26;100.00;97918.67;1786284;78;20990;-81
2023/02/20 17:25:56;;;;;;;13.65;3.10;;;;;;;6.22;100.00;97912.02;1783993;79;21058;-82
2023/02/20 17:28:23;;;;;;;14.13;3.58;;;;;;;6.18;100.00;97927.83;1725581;81;21444;-82
2023/02/20 17:30:53;;;;;;;13.00;3.33;;;;;;;6.20;100.00;97915.63;1731152;81;21555;-81
2023/02/20 17:33:22;;;;;;;16.02;3.67;;;;;;;6.20;100.00;97927.28;1761163;80;21021;-82
2023/02/20 17:35:49;;;;;;;13.90;3.05;;;;;;;6.19;100.00;97926.89;1702381;83;21010;-82
2023/02/20 17:38:25;;;;;;;17.30;3.67;;;;;;;6.22;100.00;97924.15;1662386;84;21009;-82
2023/02/20 18:02:31;;;;;;;;;;;;;;;;;;;;;
2023/02/20 18:07:45;;;;;;;17.52;4.05;;;;;;;6.30;100.00;97897.30;1511905;92;21778;-85
2023/02/20 18:19:02;;;;;;;16.95;3.67;;;;;;;6.18;100.00;97906.63;1371944;101;21237;-82